createdAt,value
2018-08-22T00:01:23.480Z,95955.00
2018-08-22T00:03:53.877Z,95958.00
2018-08-22T00:06:23.974Z,95951.00
2018-08-22T00:08:54.340Z,95950.00
2018-08-22T00:11:24.539Z,95952.00
2018-08-22T00:13:55.026Z,95951.00
2018-08-22T00:16:25.209Z,95953.00
2018-08-22T00:18:55.540Z,95946.00
2018-08-22T00:21:25.756Z,95946.00
2018-08-22T00:23:56.068Z,95948.00
2018-08-22T00:26:26.340Z,95948.00
2018-08-22T00:28:56.716Z,95941.00
2018-08-22T00:31:27.000Z,95939.00
2018-08-22T00:33:57.383Z,95937.00
2018-08-22T00:36:27.630Z,95933.00
2018-08-22T00:38:58.187Z,95934.00
2018-08-22T00:41:28.417Z,95935.00
2018-08-22T00:43:58.614Z,95930.00
2018-08-22T00:46:28.937Z,95930.00
2018-08-22T00:48:59.298Z,95931.00
2018-08-22T00:51:29.572Z,95930.00
2018-08-22T00:54:00.222Z,95931.00
2018-08-22T00:56:30.486Z,95932.00
2018-08-22T00:59:00.745Z,95929.00
2018-08-22T01:01:33.355Z,95925.00
2018-08-22T01:04:03.822Z,95923.00
2018-08-22T01:06:34.211Z,95919.00
2018-08-22T01:09:05.170Z,95917.00
2018-08-22T01:11:35.808Z,95921.00
2018-08-22T01:14:05.891Z,95915.00
2018-08-22T01:16:36.084Z,95916.00
2018-08-22T01:19:06.295Z,95918.00
2018-08-22T01:21:36.494Z,95922.00
2018-08-22T01:24:06.947Z,95923.00
2018-08-22T01:26:37.163Z,95924.00
2018-08-22T01:29:08.068Z,95922.00
2018-08-22T01:31:38.221Z,95924.00
2018-08-22T01:34:08.681Z,95923.00
2018-08-22T01:36:39.389Z,95914.00
2018-08-22T01:39:09.942Z,95920.00
2018-08-22T01:41:40.110Z,95910.00
2018-08-22T01:44:10.346Z,95912.00
2018-08-22T01:46:40.549Z,95913.00
2018-08-22T01:49:10.687Z,95913.00
2018-08-22T01:51:40.994Z,95908.00
2018-08-22T01:54:11.329Z,95908.00
2018-08-22T01:56:41.963Z,95906.00
2018-08-22T01:59:12.392Z,95912.00
2018-08-22T02:01:42.754Z,95909.00
2018-08-22T02:04:12.982Z,95902.00
2018-08-22T02:06:43.375Z,95906.00
2018-08-22T02:09:13.574Z,95907.00
2018-08-22T02:11:43.778Z,95904.00
2018-08-22T02:14:14.394Z,95900.00
2018-08-22T02:16:44.647Z,95907.00
2018-08-22T02:19:14.937Z,95905.00
2018-08-22T02:21:45.226Z,95907.00
2018-08-22T02:24:15.442Z,95902.00
2018-08-22T02:26:45.771Z,95908.00
2018-08-22T02:29:16.116Z,95908.00
2018-08-22T02:31:46.660Z,95904.00
2018-08-22T02:34:17.088Z,95900.00
2018-08-22T02:36:47.366Z,95896.00
2018-08-22T02:39:17.699Z,95898.00
2018-08-22T02:41:47.815Z,95896.00
2018-08-22T02:44:18.146Z,95895.00
2018-08-22T02:46:48.469Z,95891.00
2018-08-22T02:49:18.728Z,95894.00
2018-08-22T02:52:05.573Z,95894.00
2018-08-22T02:54:35.694Z,95890.00
2018-08-22T02:57:05.934Z,95891.00
2018-08-22T02:59:36.040Z,95890.00
2018-08-22T03:02:06.743Z,95888.00
2018-08-22T03:04:37.049Z,95886.00
2018-08-22T03:07:07.214Z,95892.00
2018-08-22T03:09:37.448Z,95889.00
2018-08-22T03:12:08.094Z,95890.00
2018-08-22T03:14:38.377Z,95889.00
2018-08-22T03:17:08.693Z,95889.00
2018-08-22T03:19:38.935Z,95891.00
2018-08-22T03:22:09.548Z,95890.00
2018-08-22T03:24:39.885Z,95886.00
2018-08-22T03:27:10.084Z,95886.00
2018-08-22T03:29:40.665Z,95887.00
2018-08-22T03:32:10.930Z,95884.00
2018-08-22T03:34:41.156Z,95884.00
2018-08-22T03:37:11.370Z,95883.00
2018-08-22T03:39:41.636Z,95878.00
2018-08-22T03:42:11.919Z,95880.00
2018-08-22T03:44:42.647Z,95879.00
2018-08-22T03:47:12.823Z,95878.00
2018-08-22T03:49:43.019Z,95878.00
2018-08-22T03:52:13.497Z,95877.00
2018-08-22T03:54:51.764Z,95877.00
2018-08-22T03:57:24.023Z,95875.00
2018-08-22T03:59:54.701Z,95883.00
2018-08-22T04:02:25.179Z,95881.00
2018-08-22T04:04:56.075Z,95882.00
2018-08-22T04:07:26.358Z,95884.00
2018-08-22T04:09:56.716Z,95884.00
2018-08-22T04:12:27.060Z,95883.00
2018-08-22T04:14:57.604Z,95883.00
2018-08-22T04:17:33.692Z,95881.00
2018-08-22T04:20:04.047Z,95882.00
2018-08-22T04:22:34.641Z,95883.00
2018-08-22T04:25:04.943Z,95883.00
2018-08-22T04:27:35.555Z,95884.00
2018-08-22T04:30:06.160Z,95888.00
2018-08-22T04:32:36.477Z,95884.00
2018-08-22T04:35:06.876Z,95881.00
2018-08-22T04:37:37.470Z,95894.00
2018-08-22T04:40:07.838Z,95881.00
2018-08-22T04:42:38.215Z,95887.00
2018-08-22T04:45:11.407Z,95882.00
2018-08-22T04:47:41.804Z,95883.00
2018-08-22T04:50:12.194Z,95880.00
2018-08-22T04:52:43.355Z,95878.00
2018-08-22T04:55:14.024Z,95877.00
2018-08-22T04:57:44.457Z,95879.00
2018-08-22T05:00:17.987Z,95877.00
2018-08-22T05:02:48.463Z,95881.00
2018-08-22T05:05:18.824Z,95875.00
2018-08-22T05:07:49.163Z,95881.00
2018-08-22T05:10:19.472Z,95877.00
2018-08-22T05:12:50.186Z,95878.00
2018-08-22T05:15:22.249Z,95874.00
2018-08-22T05:17:52.629Z,95877.00
2018-08-22T05:20:26.530Z,95873.00
2018-08-22T05:22:56.889Z,95876.00
2018-08-22T05:25:29.815Z,95882.00
2018-08-22T05:28:02.880Z,95881.00
2018-08-22T05:30:33.451Z,95879.00
2018-08-22T05:33:04.561Z,95879.00
2018-08-22T05:35:37.786Z,95879.00
2018-08-22T05:38:10.424Z,95875.00
2018-08-22T05:40:42.343Z,95880.00
2018-08-22T05:43:14.493Z,95879.00
2018-08-22T05:45:45.285Z,95871.00
2018-08-22T05:48:15.847Z,95872.00
2018-08-22T05:50:46.155Z,95872.00
2018-08-22T05:53:19.222Z,95872.00
2018-08-22T05:55:49.753Z,95873.00
2018-08-22T05:58:20.256Z,95869.00
2018-08-22T06:00:50.524Z,95874.00
2018-08-22T06:03:21.005Z,95865.00
2018-08-22T06:05:51.451Z,95871.00
2018-08-22T06:08:21.963Z,95876.00
2018-08-22T06:10:52.551Z,95873.00
2018-08-22T06:13:22.648Z,95877.00
2018-08-22T06:15:52.856Z,95872.00
2018-08-22T06:18:23.553Z,95881.00
2018-08-22T06:20:53.785Z,95875.00
2018-08-22T06:23:23.924Z,95875.00
2018-08-22T06:25:54.222Z,95874.00
2018-08-22T06:28:24.507Z,95868.00
2018-08-22T06:30:55.745Z,95867.00
2018-08-22T06:33:26.321Z,95868.00
2018-08-22T06:35:56.912Z,95871.00
2018-08-22T06:38:27.099Z,95865.00
2018-08-22T06:40:57.506Z,95864.00
2018-08-22T06:43:27.753Z,95870.00
2018-08-22T06:45:58.452Z,95867.00
2018-08-22T06:48:28.926Z,95861.00
2018-08-22T06:50:59.359Z,95863.00
2018-08-22T06:53:29.653Z,95860.00
2018-08-22T06:56:00.024Z,95859.00
2018-08-22T06:58:30.888Z,95854.00
2018-08-22T07:01:20.646Z,95861.00
2018-08-22T07:04:01.476Z,95857.00
2018-08-22T07:06:33.013Z,95855.00
2018-08-22T07:09:03.969Z,95851.00
2018-08-22T07:11:35.049Z,95850.00
2018-08-22T07:14:05.555Z,95838.00
2018-08-22T07:16:35.835Z,95841.00
2018-08-22T07:19:14.410Z,95844.00
2018-08-22T07:21:51.397Z,95839.00
2018-08-22T07:24:22.472Z,95846.00
2018-08-22T07:26:53.037Z,95835.00
2018-08-22T07:29:23.358Z,95838.00
2018-08-22T07:31:53.744Z,95836.00
2018-08-22T07:34:24.683Z,95834.00
2018-08-22T07:36:56.153Z,95831.00
2018-08-22T07:39:26.714Z,95834.00
2018-08-22T07:41:57.092Z,95833.00
2018-08-22T07:44:27.329Z,95832.00
2018-08-22T07:46:57.660Z,95833.00
2018-08-22T07:49:28.211Z,95832.00
2018-08-22T07:51:59.134Z,95834.00
2018-08-22T07:54:40.037Z,95833.00
2018-08-22T07:57:10.636Z,95829.00
2018-08-22T07:59:41.150Z,95827.00
2018-08-22T08:02:11.566Z,95833.00
2018-08-22T08:04:42.009Z,95824.00
2018-08-22T08:07:13.185Z,95823.00
2018-08-22T08:09:43.352Z,95824.00
2018-08-22T08:12:13.737Z,95826.00
2018-08-22T08:14:45.708Z,95824.00
2018-08-22T08:17:16.307Z,95824.00
2018-08-22T08:19:46.675Z,95820.00
2018-08-22T08:22:17.375Z,95812.00
2018-08-22T08:24:47.828Z,95812.00
2018-08-22T08:27:18.448Z,95815.00
2018-08-22T08:29:49.143Z,95810.00
2018-08-22T08:32:20.587Z,95810.00
2018-08-22T08:34:51.102Z,95807.00
2018-08-22T08:37:21.438Z,95807.00
2018-08-22T08:39:51.910Z,95806.00
2018-08-22T08:42:22.745Z,95807.00
2018-08-22T08:44:53.316Z,95803.00
2018-08-22T08:47:24.636Z,95798.00
2018-08-22T08:49:55.035Z,95803.00
2018-08-22T08:52:26.613Z,95795.00
2018-08-22T08:54:58.998Z,95795.00
2018-08-22T08:57:30.185Z,95788.00
2018-08-22T09:00:02.326Z,95791.00
2018-08-22T09:02:33.543Z,95783.00
2018-08-22T09:05:05.815Z,95784.00
2018-08-22T09:07:36.888Z,95784.00
2018-08-22T09:10:07.944Z,95782.00
2018-08-22T09:12:39.522Z,95779.00
2018-08-22T09:15:09.876Z,95777.00
2018-08-22T09:17:40.229Z,95777.00
2018-08-22T09:20:10.632Z,95775.00
2018-08-22T09:22:42.001Z,95765.00
2018-08-22T09:25:12.574Z,95768.00
2018-08-22T09:27:43.754Z,95765.00
2018-08-22T09:30:14.962Z,95763.00
2018-08-22T09:32:45.611Z,95755.00
2018-08-22T09:35:16.049Z,95756.00
2018-08-22T09:37:46.411Z,95751.00
2018-08-22T09:40:20.090Z,95750.00
2018-08-22T09:42:53.204Z,95751.00
2018-08-22T09:45:24.279Z,95748.00
2018-08-22T09:47:54.820Z,95741.00
2018-08-22T09:50:25.273Z,95734.00
2018-08-22T09:52:55.770Z,95735.00
2018-08-22T09:55:26.381Z,95731.00
2018-08-22T09:57:57.253Z,95727.00
2018-08-22T10:00:33.717Z,95724.00
2018-08-22T10:03:05.855Z,95725.00
2018-08-22T10:05:36.131Z,95722.00
2018-08-22T10:08:07.703Z,95725.00
2018-08-22T10:10:39.796Z,95724.00
2018-08-22T10:13:11.662Z,95723.00
2018-08-22T10:15:42.637Z,95712.00
2018-08-22T10:18:14.858Z,95714.00
2018-08-22T10:20:45.312Z,95715.00
2018-08-22T10:23:15.677Z,95714.00
2018-08-22T10:25:46.098Z,95715.00
2018-08-22T10:28:16.384Z,95708.00
2018-08-22T10:30:46.606Z,95706.00
2018-08-22T10:33:16.963Z,95698.00
2018-08-22T10:35:47.516Z,95702.00
2018-08-22T10:38:17.754Z,95702.00
2018-08-22T10:40:48.216Z,95696.00
2018-08-22T10:43:18.601Z,95698.00
2018-08-22T10:45:57.796Z,95693.00
2018-08-22T10:48:29.794Z,95694.00
2018-08-22T10:51:00.481Z,95691.00
2018-08-22T10:53:31.115Z,95690.00
2018-08-22T10:56:01.991Z,95686.00
2018-08-22T10:58:33.180Z,95679.00
2018-08-22T11:01:04.088Z,95683.00
2018-08-22T11:03:35.438Z,95688.00
2018-08-22T11:06:06.168Z,95692.00
2018-08-22T11:08:36.477Z,95679.00
2018-08-22T11:11:07.066Z,95682.00
2018-08-22T11:13:37.649Z,95679.00
2018-08-22T11:16:08.009Z,95676.00
2018-08-22T11:18:38.428Z,95676.00
2018-08-22T11:21:19.589Z,95679.00
2018-08-22T11:24:00.576Z,95673.00
2018-08-22T11:26:41.726Z,95676.00
2018-08-22T11:29:23.083Z,95670.00
2018-08-22T11:32:04.816Z,95669.00
2018-08-22T11:34:45.746Z,95668.00
2018-08-22T11:37:17.264Z,95671.00
2018-08-22T11:39:49.311Z,95668.00
2018-08-22T11:42:20.044Z,95665.00
2018-08-22T11:44:50.604Z,95665.00
2018-08-22T11:47:21.074Z,95661.00
2018-08-22T11:49:51.859Z,95655.00
2018-08-22T11:52:22.093Z,95651.00
2018-08-22T11:54:52.640Z,95658.00
2018-08-22T11:57:23.984Z,95655.00
2018-08-22T11:59:54.368Z,95655.00
2018-08-22T12:02:24.929Z,95643.00
2018-08-22T12:04:55.405Z,95638.00
2018-08-22T12:07:26.336Z,95639.00
2018-08-22T12:09:57.272Z,95637.00
2018-08-22T12:12:28.045Z,95631.00
2018-08-22T12:14:58.639Z,95634.00
2018-08-22T12:17:29.024Z,95629.00
2018-08-22T12:19:59.443Z,95641.00
2018-08-22T12:22:29.940Z,95637.00
2018-08-22T12:25:00.781Z,95629.00
2018-08-22T12:27:31.355Z,95639.00
2018-08-22T12:30:02.118Z,95640.00
2018-08-22T12:32:32.540Z,95638.00
2018-08-22T12:35:03.452Z,95627.00
2018-08-22T12:37:33.977Z,95615.00
2018-08-22T12:40:04.713Z,95622.00
2018-08-22T12:42:35.077Z,95620.00
2018-08-22T12:45:08.828Z,95626.00
2018-08-22T12:47:40.610Z,95626.00
2018-08-22T12:50:17.024Z,95616.00
2018-08-22T12:52:47.872Z,95609.00
2018-08-22T12:55:18.207Z,95608.00
2018-08-22T12:57:48.652Z,95600.00
2018-08-22T13:00:18.995Z,95598.00
2018-08-22T13:02:49.444Z,95590.00
2018-08-22T13:05:22.575Z,95590.00
2018-08-22T13:07:54.240Z,95589.00
2018-08-22T13:10:27.927Z,95584.00
2018-08-22T13:12:58.374Z,95582.00
2018-08-22T13:15:28.975Z,95586.00
2018-08-22T13:17:59.760Z,95578.00
2018-08-22T13:20:30.252Z,95576.00
2018-08-22T13:23:05.812Z,95578.00
2018-08-22T13:25:36.218Z,95577.00
2018-08-22T13:28:07.564Z,95581.00
2018-08-22T13:30:38.848Z,95575.00
2018-08-22T13:33:11.155Z,95573.00
2018-08-22T13:35:41.792Z,95566.00
2018-08-22T13:38:13.467Z,95566.00
2018-08-22T13:40:44.442Z,95566.00
2018-08-22T13:43:16.615Z,95565.00
2018-08-22T13:45:47.269Z,95562.00
2018-08-22T13:48:17.671Z,95559.00
2018-08-22T13:50:48.840Z,95558.00
2018-08-22T13:53:20.375Z,95563.00
2018-08-22T13:55:50.860Z,95560.00
2018-08-22T13:58:21.385Z,95549.00
2018-08-22T14:00:52.271Z,95555.00
2018-08-22T14:03:22.731Z,95553.00
2018-08-22T14:05:52.847Z,95550.00
2018-08-22T14:08:23.157Z,95550.00
2018-08-22T14:10:54.869Z,95551.00
2018-08-22T14:13:26.171Z,95550.00
2018-08-22T14:15:56.799Z,95546.00
2018-08-22T14:18:27.102Z,95548.00
2018-08-22T14:20:58.047Z,95543.00
2018-08-22T14:23:28.427Z,95538.00
2018-08-22T14:25:58.956Z,95538.00
2018-08-22T14:28:29.769Z,95540.00
2018-08-22T14:31:00.607Z,95532.00
2018-08-22T14:33:31.430Z,95537.00
2018-08-22T14:36:02.083Z,95542.00
2018-08-22T14:38:32.547Z,95536.00
2018-08-22T14:41:03.135Z,95540.00
2018-08-22T14:43:33.524Z,95530.00
2018-08-22T14:46:05.580Z,95529.00
2018-08-22T14:48:43.295Z,95529.00
2018-08-22T14:51:14.079Z,95530.00
2018-08-22T14:53:44.331Z,95528.00
2018-08-22T14:56:14.726Z,95532.00
2018-08-22T14:58:45.353Z,95531.00
2018-08-22T15:01:16.791Z,95522.00
2018-08-22T15:03:47.485Z,95515.00
2018-08-22T15:06:17.889Z,95518.00
2018-08-22T15:08:48.394Z,95516.00
2018-08-22T15:11:19.422Z,95521.00
2018-08-22T15:13:49.760Z,95518.00
2018-08-22T15:16:20.172Z,95515.00
2018-08-22T15:18:50.593Z,95505.00
2018-08-22T15:21:21.223Z,95508.00
2018-08-22T15:23:52.429Z,95500.00
2018-08-22T15:26:22.750Z,95498.00
2018-08-22T15:28:53.767Z,95494.00
2018-08-22T15:31:24.449Z,95500.00
2018-08-22T15:33:54.959Z,95494.00
2018-08-22T15:36:25.584Z,95493.00
2018-08-22T15:38:55.967Z,95487.00
2018-08-22T15:41:26.613Z,95485.00
2018-08-22T15:43:57.115Z,95482.00
2018-08-22T15:46:27.755Z,95482.00
2018-08-22T15:48:59.015Z,95488.00
2018-08-22T15:51:29.689Z,95486.00
2018-08-22T15:54:09.711Z,95486.00
2018-08-22T15:56:41.619Z,95476.00
2018-08-22T15:59:13.447Z,95474.00
2018-08-22T16:01:44.057Z,95478.00
2018-08-22T16:04:15.549Z,95470.00
2018-08-22T16:06:46.162Z,95468.00
2018-08-22T16:09:21.589Z,95467.00
2018-08-22T16:11:53.905Z,95469.00
2018-08-22T16:14:33.012Z,95467.00
2018-08-22T16:17:08.838Z,95463.00
2018-08-22T16:19:39.951Z,95461.00
2018-08-22T16:22:13.119Z,95462.00
2018-08-22T16:24:43.964Z,95459.00
2018-08-22T16:27:14.224Z,95456.00
2018-08-22T16:29:44.765Z,95456.00
2018-08-22T16:32:14.967Z,95463.00
2018-08-22T16:34:45.684Z,95456.00
2018-08-22T16:37:16.770Z,95460.00
2018-08-22T16:39:48.805Z,95456.00
2018-08-22T16:42:24.931Z,95455.00
2018-08-22T16:44:56.395Z,95454.00
2018-08-22T16:47:31.859Z,95454.00
2018-08-22T16:50:07.596Z,95454.00
2018-08-22T16:52:38.313Z,95453.00
2018-08-22T16:55:22.788Z,95451.00
2018-08-22T16:57:54.155Z,95451.00
2018-08-22T17:00:35.976Z,95452.00
2018-08-22T17:03:09.721Z,95452.00
2018-08-22T17:05:40.176Z,95455.00
2018-08-22T17:08:12.609Z,95456.00
2018-08-22T17:10:55.187Z,95456.00
2018-08-22T17:13:31.481Z,95453.00
2018-08-22T17:16:03.137Z,95452.00
2018-08-22T17:18:33.911Z,95449.00
2018-08-22T17:21:04.648Z,95452.00
2018-08-22T17:23:35.222Z,95451.00
2018-08-22T17:26:06.094Z,95453.00
2018-08-22T17:28:39.736Z,95454.00
2018-08-22T17:31:10.994Z,95456.00
2018-08-22T17:33:46.233Z,95457.00
2018-08-22T17:36:17.024Z,95457.00
2018-08-22T17:38:48.852Z,95461.00
2018-08-22T17:41:21.016Z,95461.00
2018-08-22T17:44:18.940Z,95465.00
2018-08-22T17:46:51.731Z,95467.00
2018-08-22T17:49:23.366Z,95471.00
2018-08-22T17:52:01.405Z,95470.00
2018-08-22T17:54:33.371Z,95471.00
2018-08-22T17:57:22.697Z,95466.00
2018-08-22T17:59:54.873Z,95467.00
2018-08-22T18:02:25.609Z,95467.00
2018-08-22T18:05:07.080Z,95468.00
2018-08-22T18:07:38.053Z,95479.00
2018-08-22T18:10:08.891Z,95475.00
2018-08-22T18:12:40.329Z,95476.00
2018-08-22T18:15:10.810Z,95480.00
2018-08-22T18:17:42.281Z,95482.00
2018-08-22T18:20:12.875Z,95483.00
2018-08-22T18:22:43.560Z,95488.00
2018-08-22T18:25:14.096Z,95489.00
2018-08-22T18:27:45.096Z,95489.00
2018-08-22T18:30:15.631Z,95493.00
2018-08-22T18:32:46.826Z,95494.00
2018-08-22T18:35:22.048Z,95508.00
2018-08-22T18:55:20.438Z,95519.00
2018-08-22T18:57:51.089Z,95523.00
2018-08-22T19:00:22.835Z,95523.00
2018-08-22T19:02:55.193Z,95528.00
2018-08-22T19:05:30.182Z,95528.00
2018-08-22T19:08:08.676Z,95530.00
2018-08-22T19:10:47.286Z,95533.00
2018-08-22T19:13:19.776Z,95532.00
2018-08-22T19:15:52.108Z,95532.00
2018-08-22T19:18:22.548Z,95534.00
2018-08-22T19:20:59.098Z,95533.00
2018-08-22T19:23:31.561Z,95536.00
2018-08-22T19:26:04.144Z,95535.00
2018-08-22T19:28:53.491Z,95540.00
2018-08-22T19:31:25.630Z,95539.00
2018-08-22T19:34:00.457Z,95536.00
2018-08-22T19:36:31.172Z,95537.00
2018-08-22T19:39:01.759Z,95538.00
2018-08-22T19:41:36.179Z,95542.00
2018-08-22T19:44:07.622Z,95540.00
2018-08-22T19:46:39.563Z,95546.00
2018-08-22T19:49:10.298Z,95547.00
2018-08-22T19:51:40.714Z,95547.00
2018-08-22T19:54:11.006Z,95549.00
2018-08-22T19:56:41.724Z,95548.00
2018-08-22T19:59:13.778Z,95550.00
2018-08-22T20:01:44.837Z,95548.00
2018-08-22T20:04:16.421Z,95552.00
2018-08-22T20:06:47.210Z,95553.00
2018-08-22T20:09:18.016Z,95560.00
2018-08-22T20:11:48.871Z,95560.00
2018-08-22T20:14:19.469Z,95558.00
2018-08-22T20:16:51.303Z,95563.00
2018-08-22T20:19:22.496Z,95556.00
2018-08-22T20:21:53.395Z,95560.00
2018-08-22T20:24:25.192Z,95561.00
2018-08-22T20:27:01.280Z,95562.00
2018-08-22T20:29:32.429Z,95561.00
2018-08-22T20:32:04.497Z,95563.00
2018-08-22T20:34:35.192Z,95560.00
2018-08-22T20:37:06.267Z,95564.00
2018-08-22T20:39:36.850Z,95553.00
2018-08-22T20:42:11.789Z,95560.00
2018-08-22T20:44:44.170Z,95559.00
2018-08-22T20:47:14.972Z,95565.00
2018-08-22T20:49:47.352Z,95558.00
2018-08-22T20:52:19.311Z,95559.00
2018-08-22T20:54:56.555Z,95565.00
2018-08-22T20:57:28.411Z,95569.00
2018-08-22T20:59:59.443Z,95571.00
2018-08-22T21:02:30.735Z,95568.00
2018-08-22T21:05:02.559Z,95570.00
2018-08-22T21:07:38.809Z,95566.00
2018-08-22T21:10:09.683Z,95569.00
2018-08-22T21:12:40.682Z,95566.00
2018-08-22T21:15:13.740Z,95565.00
2018-08-22T21:17:45.371Z,95562.00
2018-08-22T21:20:21.246Z,95559.00
2018-08-22T21:22:52.643Z,95563.00
2018-08-22T21:25:23.654Z,95560.00
2018-08-22T21:27:54.923Z,95559.00
2018-08-22T21:30:25.557Z,95555.00
2018-08-22T21:32:56.164Z,95556.00
2018-08-22T21:35:28.206Z,95556.00
2018-08-22T21:38:20.724Z,95556.00
2018-08-22T21:40:51.435Z,95553.00
2018-08-22T21:43:23.102Z,95553.00
2018-08-22T21:45:55.661Z,95552.00
2018-08-22T21:48:27.872Z,95555.00
2018-08-22T21:50:59.662Z,95556.00
2018-08-22T21:53:32.688Z,95557.00
2018-08-22T21:56:04.488Z,95559.00
2018-08-22T21:58:35.312Z,95554.00
2018-08-22T22:01:08.535Z,95550.00
2018-08-22T22:03:40.678Z,95554.00
2018-08-22T22:06:11.355Z,95554.00
2018-08-22T22:08:46.398Z,95550.00
2018-08-22T22:11:22.991Z,95546.00
2018-08-22T22:13:59.137Z,95547.00
2018-08-22T22:16:32.120Z,95550.00
2018-08-22T22:19:02.966Z,95551.00
2018-08-22T22:21:33.812Z,95554.00
2018-08-22T22:24:04.940Z,95551.00
2018-08-22T22:26:35.629Z,95545.00
2018-08-22T22:29:06.466Z,95550.00
2018-08-22T22:31:37.191Z,95549.00
2018-08-22T22:34:07.995Z,95547.00
2018-08-22T22:36:38.380Z,95546.00
2018-08-22T22:39:23.284Z,95546.00
2018-08-22T22:41:54.064Z,95538.00
2018-08-22T22:44:24.629Z,95542.00
2018-08-22T22:46:55.155Z,95539.00
2018-08-22T22:49:25.647Z,95543.00
2018-08-22T22:51:56.425Z,95541.00
2018-08-22T22:54:36.322Z,95543.00
2018-08-22T22:57:06.488Z,95535.00
2018-08-22T22:59:37.036Z,95533.00
2018-08-22T23:02:07.602Z,95540.00
2018-08-22T23:04:46.278Z,95538.00
2018-08-22T23:07:26.290Z,95535.00
2018-08-22T23:10:00.588Z,95534.00
2018-08-22T23:12:47.866Z,95534.00
2018-08-22T23:15:26.670Z,95530.00
2018-08-22T23:17:58.869Z,95531.00
2018-08-22T23:20:33.511Z,95526.00
2018-08-22T23:23:17.123Z,95527.00
2018-08-22T23:25:47.542Z,95523.00
2018-08-22T23:28:17.978Z,95524.00
2018-08-22T23:30:48.471Z,95526.00
2018-08-22T23:33:19.146Z,95520.00
2018-08-22T23:35:49.632Z,95519.00
2018-08-22T23:38:27.413Z,95515.00
2018-08-22T23:40:58.011Z,95521.00
2018-08-22T23:43:34.636Z,95517.00
2018-08-22T23:46:06.656Z,95513.00
2018-08-22T23:48:37.633Z,95513.00
2018-08-22T23:51:09.985Z,95519.00
2018-08-22T23:53:48.887Z,95513.00
2018-08-22T23:56:34.089Z,95512.00
2018-08-22T23:59:04.455Z,95513.00
